Racine, Minnesota
Current Conditions -  °F | °C
As of 7:09 PM on Sunday 23 Nov 2014 (Local Time) from KRST Reporting Station
Light Rain Light Rain  
Wind Chill: 30°   Ceiling: 600
Heat Index: 39°   Visibility: 5mi
Dew Point: 38°   Wind: 16mph
Humidity: 96%   Direction: 330°NNW
Pressure: 29.33"   Gusts: NA
Location:  43.78°N, 92.48°W
Report Text: KRST 240109Z 33014KT 5SM -RA BR OVC006 04/03 A2933 RMK AO2 CIG 004V010 P0000 T00390033
Loading
Personal Weather Stations






























Interactive Weather Map New forecast layout! Learn more

10-Day Weather Forecast

Advertisements
Track Severe Weather on mobile